createdAt,value
2019-03-20T00:00:02.776Z,26.299999
2019-03-20T00:01:02.909Z,25
2019-03-20T00:02:03.040Z,26.4
2019-03-20T00:03:03.135Z,26.5
2019-03-20T00:04:04.232Z,25.9
2019-03-20T00:05:03.335Z,27.700001
2019-03-20T00:06:03.435Z,21.4
2019-03-20T00:07:03.550Z,23.6
2019-03-20T00:08:03.650Z,26.200001
2019-03-20T00:09:03.777Z,23.799999
2019-03-20T00:10:03.875Z,28
2019-03-20T00:11:03.986Z,28.799999
2019-03-20T00:12:04.104Z,26.4
2019-03-20T00:13:04.222Z,25.6
2019-03-20T00:14:04.370Z,23
2019-03-20T00:15:04.479Z,28.5
2019-03-20T00:16:04.598Z,27.200001
2019-03-20T00:17:04.695Z,25.6
2019-03-20T00:18:04.794Z,23.6
2019-03-20T00:19:04.898Z,25.299999
2019-03-20T00:20:05.003Z,28.5
2019-03-20T00:21:05.108Z,26.6
2019-03-20T00:22:05.230Z,26.9
2019-03-20T00:23:05.363Z,24.299999
2019-03-20T00:24:05.490Z,27.6
2019-03-20T00:25:05.610Z,26
2019-03-20T00:26:05.711Z,24.6
2019-03-20T00:27:05.849Z,27.9
2019-03-20T00:28:05.965Z,24.5
2019-03-20T00:29:06.074Z,29.4
2019-03-20T00:30:06.192Z,24.700001
2019-03-20T00:31:06.295Z,26
2019-03-20T00:32:06.449Z,27.200001
2019-03-20T00:33:06.573Z,32.900002
2019-03-20T00:34:06.693Z,27.4
2019-03-20T00:35:06.800Z,26.299999
2019-03-20T00:36:06.905Z,27.4
2019-03-20T00:37:07.066Z,25
2019-03-20T00:38:07.060Z,22.5
2019-03-20T00:39:07.010Z,27.299999
2019-03-20T00:40:07.106Z,29.1
2019-03-20T00:41:07.219Z,25.6
2019-03-20T00:42:07.380Z,30.799999
2019-03-20T00:43:07.314Z,25.700001
2019-03-20T00:44:07.417Z,27.5
2019-03-20T00:45:07.578Z,31.700001
2019-03-20T00:46:07.518Z,26.9
2019-03-20T00:47:07.738Z,32.400002
2019-03-20T00:48:08.663Z,31.299999
2019-03-20T00:49:07.759Z,30.5
2019-03-20T00:50:07.858Z,26.700001
2019-03-20T00:51:07.955Z,29.799999
2019-03-20T00:52:08.101Z,29.200001
2019-03-20T00:53:08.217Z,29.200001
2019-03-20T00:54:08.323Z,25.799999
2019-03-20T00:55:08.430Z,27.5
2019-03-20T00:56:08.534Z,27.6
2019-03-20T00:57:08.672Z,29.200001
2019-03-20T00:58:08.767Z,26.5
2019-03-20T00:59:08.876Z,28.700001
2019-03-20T01:00:08.979Z,27.6
2019-03-20T01:01:09.077Z,28.9
2019-03-20T01:02:09.227Z,29.4
2019-03-20T01:03:09.328Z,28.700001
2019-03-20T01:04:09.452Z,29.1
2019-03-20T01:05:12.631Z,26.799999
2019-03-20T01:06:10.622Z,28
2019-03-20T01:07:10.235Z,27.200001
2019-03-20T01:08:09.872Z,30.200001
2019-03-20T01:09:09.974Z,29.5
2019-03-20T01:10:10.066Z,32
2019-03-20T01:11:10.174Z,29.6
2019-03-20T01:12:10.386Z,30.700001
2019-03-20T01:13:10.333Z,30.299999
2019-03-20T01:14:10.440Z,29
2019-03-20T01:15:10.548Z,27.799999
2019-03-20T01:16:10.649Z,33.299999
2019-03-20T01:17:11.798Z,33.5
2019-03-20T01:18:10.888Z,30.9
2019-03-20T01:19:10.991Z,31.4
2019-03-20T01:20:11.122Z,35.400002
2019-03-20T01:21:11.233Z,33.200001
2019-03-20T01:22:11.375Z,30
2019-03-20T01:23:11.481Z,31.9
2019-03-20T01:24:11.587Z,32
2019-03-20T01:25:11.687Z,32.099998
2019-03-20T01:26:11.788Z,30.9
2019-03-20T01:27:12.037Z,34
2019-03-20T01:28:11.967Z,28
2019-03-20T01:29:12.056Z,32.900002
2019-03-20T01:30:12.160Z,31.5
2019-03-20T01:31:12.261Z,31.9
2019-03-20T01:32:12.395Z,31.5
2019-03-20T01:33:12.515Z,30.6
2019-03-20T01:34:12.607Z,32.599998
2019-03-20T01:35:23.227Z,35.200001
2019-03-20T01:36:13.795Z,28
2019-03-20T01:37:12.947Z,32.299999
2019-03-20T01:38:12.926Z,32.900002
2019-03-20T01:39:13.047Z,33
2019-03-20T01:40:13.149Z,34
2019-03-20T01:41:13.279Z,34
2019-03-20T01:42:13.418Z,27.200001
2019-03-20T01:43:13.525Z,28.700001
2019-03-20T01:44:13.622Z,31.9
2019-03-20T01:45:13.828Z,31.299999
2019-03-20T01:46:13.845Z,30.1
2019-03-20T01:47:14.023Z,33
2019-03-20T01:48:13.962Z,31.299999
2019-03-20T01:49:14.089Z,28.4
2019-03-20T01:50:14.181Z,28.799999
2019-03-20T01:51:14.280Z,31.799999
2019-03-20T01:52:14.428Z,36.200001
2019-03-20T01:53:14.552Z,30.5
2019-03-20T01:54:14.677Z,30.700001
2019-03-20T01:55:14.790Z,34.900002
2019-03-20T01:56:14.892Z,31.799999
2019-03-20T01:57:15.047Z,33.799999
2019-03-20T01:58:15.203Z,33.299999
2019-03-20T01:59:15.231Z,29.200001
2019-03-20T02:00:15.172Z,32.5
2019-03-20T02:01:15.274Z,32.900002
2019-03-20T02:02:15.354Z,33.299999
2019-03-20T02:03:15.483Z,33
2019-03-20T02:04:15.592Z,32
2019-03-20T02:05:15.711Z,33.299999
2019-03-20T02:06:15.817Z,30.6
2019-03-20T02:07:15.915Z,32.400002
2019-03-20T02:08:16.060Z,32.099998
2019-03-20T02:09:16.168Z,32
2019-03-20T02:10:16.339Z,33.700001
2019-03-20T02:11:16.276Z,34.200001
2019-03-20T02:12:16.403Z,34.099998
2019-03-20T02:13:16.522Z,30.299999
2019-03-20T02:14:16.633Z,35.599998
2019-03-20T02:15:17.744Z,31.6
2019-03-20T02:16:16.840Z,30
2019-03-20T02:17:16.956Z,29.200001
2019-03-20T02:18:17.076Z,31.4
2019-03-20T02:19:17.173Z,36.900002
2019-03-20T02:20:17.266Z,34.900002
2019-03-20T02:21:17.394Z,29.9
2019-03-20T02:22:17.514Z,32.099998
2019-03-20T02:23:17.640Z,33.299999
2019-03-20T02:24:17.772Z,32.599998
2019-03-20T02:25:17.882Z,33.900002
2019-03-20T02:26:17.991Z,31.200001
2019-03-20T02:27:18.110Z,29.799999
2019-03-20T02:28:18.289Z,31.1
2019-03-20T02:29:18.210Z,31.4
2019-03-20T02:30:18.308Z,33.299999
2019-03-20T02:31:18.463Z,34.5
2019-03-20T02:32:18.560Z,29.6
2019-03-20T02:33:18.730Z,30.9
2019-03-20T02:34:18.657Z,38.5
2019-03-20T02:35:18.753Z,32.799999
2019-03-20T02:36:18.868Z,31.5
2019-03-20T02:37:18.966Z,37.599998
2019-03-20T02:38:19.109Z,36.299999
2019-03-20T02:39:19.235Z,32.200001
2019-03-20T02:40:19.359Z,35.700001
2019-03-20T02:41:19.475Z,31.9
2019-03-20T02:42:19.581Z,36.200001
2019-03-20T02:43:20.335Z,34.700001
2019-03-20T02:44:19.783Z,32.799999
2019-03-20T02:45:19.888Z,39.200001
2019-03-20T02:46:19.985Z,36.099998
2019-03-20T02:47:20.091Z,33
2019-03-20T02:48:20.413Z,42.799999
2019-03-20T02:49:20.332Z,33.400002
2019-03-20T02:50:20.434Z,37.400002
2019-03-20T02:51:20.577Z,38.700001
2019-03-20T02:52:20.671Z,33.299999
2019-03-20T02:53:20.787Z,33.299999
2019-03-20T02:54:20.980Z,35.099998
2019-03-20T02:55:20.924Z,37.099998
2019-03-20T02:56:21.056Z,31.200001
2019-03-20T02:57:21.144Z,37.299999
2019-03-20T02:58:21.336Z,36.400002
2019-03-20T02:59:21.271Z,34.400002
2019-03-20T03:00:21.402Z,34.200001
2019-03-20T03:01:21.500Z,35.099998
2019-03-20T03:02:21.598Z,37.099998
2019-03-20T03:03:21.867Z,33.700001
2019-03-20T03:04:21.809Z,33.099998
2019-03-20T03:05:21.920Z,33.099998
2019-03-20T03:06:22.039Z,32.700001
2019-03-20T03:07:22.133Z,31.299999
2019-03-20T03:08:22.266Z,37.400002
2019-03-20T03:09:22.365Z,32.200001
2019-03-20T03:10:22.462Z,34.5
2019-03-20T03:11:22.576Z,35.5
2019-03-20T03:12:22.669Z,33.400002
2019-03-20T03:13:23.799Z,30.200001
2019-03-20T03:14:22.896Z,30.9
2019-03-20T03:15:22.996Z,34.099998
2019-03-20T03:16:23.101Z,33.299999
2019-03-20T03:17:23.211Z,38.400002
2019-03-20T03:18:23.337Z,32.799999
2019-03-20T03:19:23.450Z,35.5
2019-03-20T03:20:23.548Z,29.1
2019-03-20T03:21:23.639Z,32
2019-03-20T03:22:23.732Z,31.9
2019-03-20T03:23:23.883Z,35.799999
2019-03-20T03:24:24.001Z,33.200001
2019-03-20T03:25:24.112Z,34.400002
2019-03-20T03:26:24.218Z,37.599998
2019-03-20T03:27:24.327Z,36.400002
2019-03-20T03:28:24.508Z,33.200001
2019-03-20T03:29:24.463Z,32.299999
2019-03-20T03:30:24.608Z,36.900002
2019-03-20T03:31:24.720Z,37.599998
2019-03-20T03:32:24.925Z,37
2019-03-20T03:33:24.856Z,32.700001
2019-03-20T03:34:24.981Z,34
2019-03-20T03:35:25.053Z,35.099998
2019-03-20T03:36:25.155Z,35.200001
2019-03-20T03:37:25.263Z,35.200001
2019-03-20T03:38:25.375Z,31.700001
2019-03-20T03:39:25.520Z,36.700001
2019-03-20T03:40:25.602Z,38
2019-03-20T03:41:25.694Z,38
2019-03-20T03:42:25.810Z,42.099998
2019-03-20T03:43:25.903Z,35.700001
2019-03-20T03:44:26.027Z,35
2019-03-20T03:45:26.143Z,39.299999
2019-03-20T03:46:26.255Z,40.400002
2019-03-20T03:47:26.358Z,38.200001
2019-03-20T03:48:26.466Z,41.400002
2019-03-20T03:49:26.593Z,38.099998
2019-03-20T03:50:26.693Z,41.099998
2019-03-20T03:51:26.797Z,40
2019-03-20T03:52:26.921Z,37.5
2019-03-20T03:53:27.040Z,39.400002
2019-03-20T03:54:27.180Z,37.400002
2019-03-20T03:55:27.280Z,38.5
2019-03-20T03:56:27.395Z,37.400002
2019-03-20T03:57:27.576Z,36.5
2019-03-20T03:58:27.488Z,36.599998
2019-03-20T03:59:27.632Z,43.299999
2019-03-20T04:00:27.731Z,33.400002
2019-03-20T04:01:27.891Z,35.200001
2019-03-20T04:02:27.859Z,36.099998
2019-03-20T04:03:27.974Z,33.900002
2019-03-20T04:04:28.158Z,34.099998
2019-03-20T04:05:28.125Z,37.900002
2019-03-20T04:06:35.155Z,30.299999
2019-03-20T04:07:29.308Z,32.099998
2019-03-20T04:08:28.409Z,35
2019-03-20T04:09:28.524Z,33.299999
2019-03-20T04:10:28.650Z,33.599998
2019-03-20T04:11:28.755Z,31.4
2019-03-20T04:12:28.846Z,33.700001
2019-03-20T04:13:28.939Z,34.700001
2019-03-20T04:14:29.093Z,33.299999
2019-03-20T04:15:29.198Z,34
2019-03-20T04:16:29.311Z,39.5
2019-03-20T04:17:29.429Z,37
2019-03-20T04:18:29.527Z,34.700001
2019-03-20T04:19:29.651Z,32.400002
2019-03-20T04:20:29.755Z,34.900002
2019-03-20T04:21:29.851Z,33.5
2019-03-20T04:22:29.952Z,35.099998
2019-03-20T04:23:30.049Z,37.900002
2019-03-20T04:24:30.174Z,33.900002
2019-03-20T04:25:30.279Z,34.400002
2019-03-20T04:26:30.392Z,36
2019-03-20T04:27:30.530Z,33.299999
2019-03-20T04:28:30.693Z,33.099998
2019-03-20T04:29:30.702Z,29.200001
2019-03-20T04:30:30.652Z,30.9
2019-03-20T04:31:30.849Z,34.200001
2019-03-20T04:32:30.805Z,32.299999
2019-03-20T04:33:30.925Z,28.9
2019-03-20T04:34:31.052Z,31.799999
2019-03-20T04:35:31.165Z,32.599998
2019-03-20T04:36:31.268Z,32.599998
2019-03-20T04:37:31.372Z,33.099998
2019-03-20T04:38:31.483Z,30.299999
2019-03-20T04:39:31.631Z,39.400002
2019-03-20T04:40:31.747Z,34
2019-03-20T04:41:31.842Z,32.599998
2019-03-20T04:42:31.987Z,30.200001
2019-03-20T04:43:32.104Z,31.4
2019-03-20T04:44:32.238Z,30.1
2019-03-20T04:45:32.333Z,32.200001
2019-03-20T04:46:32.430Z,36.200001
2019-03-20T04:47:32.554Z,34.900002
2019-03-20T04:48:32.679Z,35
2019-03-20T04:49:32.787Z,33.200001
2019-03-20T04:50:32.895Z,32.900002
2019-03-20T04:51:33.006Z,30.200001
2019-03-20T04:52:33.104Z,33.099998
2019-03-20T04:53:33.215Z,32.099998
2019-03-20T04:54:33.370Z,36.099998
2019-03-20T04:55:33.515Z,32.599998
2019-03-20T04:56:33.601Z,34.799999
2019-03-20T04:57:33.708Z,35.200001
2019-03-20T04:58:33.806Z,35.700001
2019-03-20T04:59:33.984Z,31.799999
2019-03-20T05:00:33.915Z,33.099998
2019-03-20T05:01:34.022Z,35.299999
2019-03-20T05:02:34.116Z,34.700001
2019-03-20T05:03:34.213Z,36.099998
2019-03-20T05:04:34.390Z,26.1
2019-03-20T05:05:34.323Z,33.599998
2019-03-20T05:06:34.452Z,32.299999
2019-03-20T05:07:34.554Z,34.299999
2019-03-20T05:08:34.689Z,32.700001
2019-03-20T05:09:34.835Z,33.900002
2019-03-20T05:10:34.935Z,34.599998
2019-03-20T05:11:35.058Z,32.599998
2019-03-20T05:12:35.155Z,35.700001
2019-03-20T05:13:35.252Z,30.9
2019-03-20T05:14:35.404Z,39.099998
2019-03-20T05:15:35.499Z,40.700001
2019-03-20T05:16:35.588Z,38
2019-03-20T05:17:35.687Z,36
2019-03-20T05:18:35.844Z,40
2019-03-20T05:19:35.983Z,39.099998
2019-03-20T05:20:36.084Z,36.799999
2019-03-20T05:21:36.199Z,38
2019-03-20T05:22:36.300Z,41.700001
2019-03-20T05:23:36.420Z,39.900002
2019-03-20T05:24:36.563Z,33.5
2019-03-20T05:25:36.661Z,35.900002
2019-03-20T05:26:36.781Z,34.299999
2019-03-20T05:27:36.878Z,36.400002
2019-03-20T05:28:36.996Z,37.299999
2019-03-20T05:29:37.186Z,35.900002
2019-03-20T05:30:37.112Z,37.099998
2019-03-20T05:31:37.243Z,36.200001
2019-03-20T05:32:37.354Z,39.5
2019-03-20T05:33:37.473Z,33.900002
2019-03-20T05:34:37.674Z,33.299999
2019-03-20T05:35:37.729Z,36.599998
2019-03-20T05:36:37.781Z,33.799999
2019-03-20T05:37:37.887Z,36.900002
2019-03-20T05:38:37.987Z,37.799999
2019-03-20T05:39:38.148Z,35.5
2019-03-20T05:40:38.115Z,35.400002
2019-03-20T05:41:38.173Z,36.700001
2019-03-20T05:42:38.204Z,32
2019-03-20T05:43:38.287Z,33.700001
2019-03-20T05:44:38.374Z,37
2019-03-20T05:45:38.406Z,33.400002
2019-03-20T05:46:38.463Z,35.099998
2019-03-20T05:47:38.571Z,36.5
2019-03-20T05:48:38.634Z,34.700001
2019-03-20T05:49:38.751Z,32.5
2019-03-20T05:50:38.818Z,33
2019-03-20T05:51:38.864Z,33.5
2019-03-20T05:52:38.961Z,36.099998
2019-03-20T05:53:39.022Z,33.799999
2019-03-20T05:54:39.091Z,34.299999
2019-03-20T05:55:39.157Z,32.200001
2019-03-20T05:56:39.224Z,36.200001
2019-03-20T05:57:39.267Z,33.200001
2019-03-20T05:58:39.338Z,30.5
2019-03-20T05:59:39.385Z,32.599998
2019-03-20T06:00:39.466Z,30.799999
2019-03-20T06:01:39.522Z,29.5
2019-03-20T06:02:39.567Z,35
2019-03-20T06:03:39.606Z,31.299999
2019-03-20T06:04:39.645Z,33
2019-03-20T06:05:39.704Z,29.5
2019-03-20T06:06:39.746Z,31.1
2019-03-20T06:07:39.787Z,33.400002
2019-03-20T06:08:39.836Z,32.400002
2019-03-20T06:09:39.878Z,29.9
2019-03-20T06:10:39.949Z,30
2019-03-20T06:11:39.989Z,32.400002
2019-03-20T06:12:40.030Z,32.400002
2019-03-20T06:13:40.171Z,29.200001
2019-03-20T06:14:40.224Z,31.799999
2019-03-20T06:15:40.329Z,27
2019-03-20T06:16:40.372Z,29.200001
2019-03-20T06:17:40.414Z,29
2019-03-20T06:18:40.461Z,28.700001
2019-03-20T06:19:40.580Z,30.700001
2019-03-20T06:20:40.643Z,28
2019-03-20T06:21:40.699Z,29.4
2019-03-20T06:22:40.769Z,29
2019-03-20T06:23:40.810Z,27.299999
2019-03-20T06:24:40.856Z,27.200001
2019-03-20T06:25:40.937Z,27.6
2019-03-20T06:26:40.977Z,26.6
2019-03-20T06:27:41.040Z,32.400002
2019-03-20T06:28:41.091Z,25.9
2019-03-20T06:29:41.137Z,27.799999
2019-03-20T06:30:41.219Z,27.200001
2019-03-20T06:31:41.265Z,27.6
2019-03-20T06:32:41.313Z,25.700001
2019-03-20T06:33:41.355Z,27.1
2019-03-20T06:34:41.418Z,23.6
2019-03-20T06:35:41.508Z,24.6
2019-03-20T06:36:41.558Z,25.5
2019-03-20T06:37:41.604Z,24.6
2019-03-20T06:38:42.628Z,26.200001
2019-03-20T06:39:41.679Z,26.9
2019-03-20T06:40:41.756Z,23
2019-03-20T06:41:41.836Z,27.9
2019-03-20T06:42:41.865Z,24.1
2019-03-20T06:43:41.953Z,27
2019-03-20T06:44:41.994Z,23.200001
2019-03-20T06:45:42.102Z,25
2019-03-20T06:46:42.166Z,25.1
2019-03-20T06:47:43.232Z,25.299999
2019-03-20T06:48:42.270Z,23.200001
2019-03-20T06:49:42.313Z,22.1
2019-03-20T06:50:42.420Z,27.200001
2019-03-20T06:51:42.474Z,31.4
2019-03-20T06:52:42.526Z,25.1
2019-03-20T06:53:42.591Z,25.9
2019-03-20T06:54:42.634Z,23.700001
2019-03-20T06:55:42.756Z,25.799999
2019-03-20T06:56:42.802Z,21.6
2019-03-20T06:57:42.853Z,22.299999
2019-03-20T06:58:42.897Z,25.200001
2019-03-20T06:59:42.942Z,24.700001
2019-03-20T07:00:43.009Z,26.6
2019-03-20T07:01:43.074Z,25.4
2019-03-20T07:02:43.120Z,25.299999
2019-03-20T07:03:43.167Z,26.200001
2019-03-20T07:04:43.222Z,23
2019-03-20T07:05:43.530Z,23.6
2019-03-20T07:06:43.405Z,25.200001
2019-03-20T07:07:44.476Z,23.9
2019-03-20T07:08:44.452Z,22.6
2019-03-20T07:09:43.531Z,20.200001
2019-03-20T07:10:43.598Z,22.700001
2019-03-20T07:11:43.641Z,22.1
2019-03-20T07:12:43.686Z,25.1
2019-03-20T07:13:43.736Z,22.5
2019-03-20T07:14:43.853Z,21.1
2019-03-20T07:15:43.990Z,24
2019-03-20T07:16:44.063Z,27.5
2019-03-20T07:17:44.114Z,20.6
2019-03-20T07:18:44.215Z,23
2019-03-20T07:19:44.278Z,24.5
2019-03-20T07:20:44.361Z,18.6
2019-03-20T07:21:44.431Z,23.9
2019-03-20T07:22:44.487Z,19.5
2019-03-20T07:23:44.541Z,23.299999
2019-03-20T07:24:44.611Z,22.4
2019-03-20T07:25:44.764Z,22.299999
2019-03-20T07:26:44.817Z,27.1
2019-03-20T07:27:44.863Z,24.799999
2019-03-20T07:28:44.907Z,22.5
2019-03-20T07:29:44.996Z,23.200001
2019-03-20T07:30:45.178Z,24
2019-03-20T07:31:45.064Z,23.6
2019-03-20T07:32:45.123Z,24.799999
2019-03-20T07:33:45.177Z,24.9
2019-03-20T07:34:45.231Z,24
2019-03-20T07:35:45.300Z,23.799999
2019-03-20T07:36:45.358Z,26
2019-03-20T07:37:55.220Z,27.200001
2019-03-20T07:38:46.431Z,24.4
2019-03-20T07:39:45.472Z,27.4
2019-03-20T07:40:45.567Z,25.200001
2019-03-20T07:41:45.629Z,26.1
2019-03-20T07:42:45.750Z,26.299999
2019-03-20T07:43:45.808Z,25
2019-03-20T07:44:45.861Z,26.700001
2019-03-20T07:45:46.219Z,25.299999
2019-03-20T07:46:45.928Z,23.4
2019-03-20T07:47:46.026Z,25
2019-03-20T07:48:46.013Z,28
2019-03-20T07:49:46.082Z,20.5
2019-03-20T07:50:46.178Z,21.299999
2019-03-20T07:51:46.371Z,24.1
2019-03-20T07:52:46.265Z,23.700001
2019-03-20T07:53:46.312Z,26.9
2019-03-20T07:54:46.344Z,21.799999
2019-03-20T07:55:46.409Z,26.5
2019-03-20T07:56:46.453Z,24.299999
2019-03-20T07:57:46.484Z,19.5
2019-03-20T07:58:46.522Z,24.200001
2019-03-20T07:59:46.564Z,20.200001
2019-03-20T08:00:46.599Z,21
2019-03-20T08:01:46.691Z,23.4
2019-03-20T08:02:46.737Z,21.9
2019-03-20T08:03:46.771Z,21.299999
2019-03-20T08:04:46.816Z,19
2019-03-20T08:05:46.884Z,20.1
2019-03-20T08:06:46.960Z,19.4
2019-03-20T08:07:47.008Z,17.299999
2019-03-20T08:08:47.050Z,18.5
2019-03-20T08:09:47.128Z,18.200001
2019-03-20T08:10:47.149Z,18.700001
2019-03-20T08:11:47.219Z,19.5
2019-03-20T08:12:47.263Z,20.799999
2019-03-20T08:13:47.312Z,19.799999
2019-03-20T08:14:47.361Z,19.700001
2019-03-20T08:15:47.412Z,21
2019-03-20T08:16:47.478Z,17.299999
2019-03-20T08:17:47.534Z,17.700001
2019-03-20T08:18:47.587Z,19.5
2019-03-20T08:19:47.630Z,17.299999
2019-03-20T08:20:47.671Z,18.9
2019-03-20T08:21:47.731Z,16.200001
2019-03-20T08:22:47.792Z,18.200001
2019-03-20T08:23:47.848Z,21
2019-03-20T08:24:47.910Z,15.9
2019-03-20T08:25:48.000Z,19.5
2019-03-20T08:26:48.067Z,17
2019-03-20T08:27:48.116Z,18.6
2019-03-20T08:28:48.167Z,18.5
2019-03-20T08:29:48.209Z,18.700001
2019-03-20T08:30:48.275Z,19.9
2019-03-20T08:31:48.358Z,18.5
2019-03-20T08:32:48.405Z,19.799999
2019-03-20T08:33:48.489Z,14
2019-03-20T08:34:48.532Z,24.200001
2019-03-20T08:35:48.592Z,16.700001
2019-03-20T08:36:48.728Z,16
2019-03-20T08:37:48.781Z,15.3
2019-03-20T08:38:48.839Z,16
2019-03-20T08:39:48.907Z,18
2019-03-20T08:40:48.961Z,15.3
2019-03-20T08:41:49.074Z,15.7
2019-03-20T08:42:49.113Z,13.9
2019-03-20T08:43:49.156Z,16.1
2019-03-20T08:44:49.223Z,15.7
2019-03-20T08:45:49.266Z,17.299999
2019-03-20T08:46:49.391Z,16.5
2019-03-20T08:47:49.460Z,15.1
2019-03-20T08:48:49.498Z,13.5
2019-03-20T08:49:49.595Z,14.5
2019-03-20T08:50:49.639Z,15.5
2019-03-20T08:51:49.735Z,14.4
2019-03-20T08:52:49.781Z,15.7
2019-03-20T08:53:49.823Z,17.1
2019-03-20T08:54:49.858Z,15.6
2019-03-20T08:55:49.933Z,16.1
2019-03-20T08:56:50.036Z,17.4
2019-03-20T08:57:50.084Z,15.7
2019-03-20T08:58:50.139Z,16.299999
2019-03-20T08:59:50.177Z,16.9
2019-03-20T09:00:50.271Z,18.5
2019-03-20T09:01:50.353Z,16.700001
2019-03-20T09:02:50.433Z,19
2019-03-20T09:03:50.533Z,16.200001
2019-03-20T09:04:50.568Z,17.1
2019-03-20T09:05:50.614Z,16.5
2019-03-20T09:06:50.708Z,17.700001
2019-03-20T09:07:50.722Z,16.4
2019-03-20T09:08:50.797Z,14.8
2019-03-20T09:09:50.950Z,16.4
2019-03-20T09:10:50.914Z,18.700001
2019-03-20T09:11:51.004Z,16.6
2019-03-20T09:12:51.053Z,15.5
2019-03-20T09:13:51.125Z,17.799999
2019-03-20T09:14:51.180Z,16.1
2019-03-20T09:15:51.231Z,16.1
2019-03-20T09:16:51.301Z,15.6
2019-03-20T09:17:51.366Z,15.4
2019-03-20T09:18:51.404Z,20.4
2019-03-20T09:19:51.474Z,17.5
2019-03-20T09:20:51.550Z,19.200001
2019-03-20T09:21:51.640Z,15.6
2019-03-20T09:22:51.674Z,16
2019-03-20T09:23:51.727Z,21.4
2019-03-20T09:24:51.793Z,16.9
2019-03-20T09:25:51.866Z,19.200001
2019-03-20T09:26:51.987Z,17.1
2019-03-20T09:27:52.033Z,16.200001
2019-03-20T09:28:52.082Z,18.4
2019-03-20T09:29:52.121Z,17.799999
2019-03-20T09:30:52.162Z,18.5
2019-03-20T09:31:52.270Z,16.4
2019-03-20T09:32:52.308Z,19.299999
2019-03-20T09:33:52.400Z,16.4
2019-03-20T09:34:52.488Z,18.9
2019-03-20T09:35:52.555Z,15.3
2019-03-20T09:36:52.611Z,19
2019-03-20T09:37:52.931Z,17.700001
2019-03-20T09:38:52.717Z,19.6
2019-03-20T09:39:52.882Z,19.700001
2019-03-20T09:40:52.949Z,17.6
2019-03-20T09:41:53.035Z,16.4
2019-03-20T09:42:53.162Z,19
2019-03-20T09:43:53.144Z,16.1
2019-03-20T09:44:53.244Z,18.700001
2019-03-20T09:45:53.314Z,17.700001
2019-03-20T09:46:53.303Z,17.6
2019-03-20T09:47:53.324Z,17.9
2019-03-20T09:48:53.429Z,18.799999
2019-03-20T09:49:53.476Z,17.200001
2019-03-20T09:50:53.522Z,19.799999
2019-03-20T09:51:53.507Z,18.200001
2019-03-20T09:52:53.660Z,15.5
2019-03-20T09:53:53.704Z,17.200001
2019-03-20T09:54:53.726Z,16.6
2019-03-20T09:55:53.822Z,18.4
2019-03-20T09:56:53.904Z,17.5
2019-03-20T09:57:54.076Z,16.4
2019-03-20T09:58:54.114Z,18.799999
2019-03-20T09:59:54.074Z,16.1
2019-03-20T10:00:54.098Z,19.200001
2019-03-20T10:01:54.115Z,17.5
2019-03-20T10:02:54.253Z,18.799999
2019-03-20T10:03:54.224Z,19.6
2019-03-20T10:04:54.313Z,21
2019-03-20T10:05:54.321Z,18.6
2019-03-20T10:06:54.304Z,16.200001
2019-03-20T10:07:54.363Z,18.799999
2019-03-20T10:08:54.637Z,16.799999
2019-03-20T10:09:54.510Z,18.799999
2019-03-20T10:10:54.534Z,18
2019-03-20T10:11:54.576Z,20.200001
2019-03-20T10:12:54.565Z,20.4
2019-03-20T10:13:54.572Z,18.5
2019-03-20T10:14:54.587Z,16.9
2019-03-20T10:15:54.600Z,19
2019-03-20T10:16:54.638Z,19.5
2019-03-20T10:17:54.679Z,18.200001
2019-03-20T10:18:54.689Z,17.700001
2019-03-20T10:19:54.754Z,19.200001
2019-03-20T10:20:54.883Z,20.4
2019-03-20T10:21:54.923Z,19.200001
2019-03-20T10:22:55.007Z,18.5
2019-03-20T10:23:55.070Z,17.299999
2019-03-20T10:24:55.095Z,18.6
2019-03-20T10:25:55.148Z,20.299999
2019-03-20T10:26:55.176Z,21.299999
2019-03-20T10:27:55.314Z,18.1
2019-03-20T10:28:55.351Z,21.1
2019-03-20T10:29:55.468Z,18.200001
2019-03-20T10:30:55.462Z,17.1
2019-03-20T10:31:55.530Z,18.6
2019-03-20T10:32:55.581Z,19.299999
2019-03-20T10:33:55.600Z,16.4
2019-03-20T10:34:55.621Z,16.9
2019-03-20T10:35:55.589Z,15.6
2019-03-20T10:36:55.646Z,17.299999
2019-03-20T10:37:55.785Z,15.2
2019-03-20T10:39:05.921Z,17
2019-03-20T10:39:56.903Z,16.9
2019-03-20T10:40:55.902Z,15.2
2019-03-20T10:41:55.943Z,16.299999
2019-03-20T10:42:56.171Z,14.2
2019-03-20T10:43:56.081Z,13.7
2019-03-20T10:44:56.198Z,12.1
2019-03-20T10:45:56.247Z,11.2
2019-03-20T10:46:56.289Z,11.4
2019-03-20T10:47:56.419Z,11.5
2019-03-20T10:48:56.579Z,10.8
2019-03-20T10:49:56.568Z,11
2019-03-20T10:50:56.648Z,11.5
2019-03-20T10:51:56.693Z,11.5
2019-03-20T10:52:56.757Z,11.5
2019-03-20T10:53:56.809Z,10.6
2019-03-20T10:54:56.861Z,8.3
2019-03-20T10:55:56.903Z,9.9
2019-03-20T10:56:56.948Z,7.7
2019-03-20T10:57:57.051Z,7.6
2019-03-20T10:58:57.109Z,8.9
2019-03-20T10:59:57.198Z,10.1
2019-03-20T11:00:57.279Z,8.1
2019-03-20T11:01:57.336Z,9.4
2019-03-20T11:02:57.467Z,7.5
2019-03-20T11:03:57.506Z,9.7
2019-03-20T11:04:57.564Z,8.3
2019-03-20T11:05:57.620Z,7.7
2019-03-20T11:06:57.673Z,8.6
2019-03-20T11:07:57.777Z,7.4
2019-03-20T11:08:57.828Z,7.8
2019-03-20T11:09:57.877Z,8.4
2019-03-20T11:10:57.945Z,8.8
2019-03-20T11:11:58.034Z,7.8
2019-03-20T11:12:58.088Z,7.9
2019-03-20T11:13:58.133Z,6.3
2019-03-20T11:14:58.180Z,9
2019-03-20T11:15:58.233Z,7.9
2019-03-20T11:16:58.290Z,6.5
2019-03-20T11:17:58.416Z,8.3
2019-03-20T11:18:58.446Z,6.6
2019-03-20T11:19:58.475Z,5.8
2019-03-20T11:20:58.531Z,7.9
2019-03-20T11:21:58.588Z,5.8
2019-03-20T11:22:58.673Z,5.6
2019-03-20T11:23:58.744Z,6.3
2019-03-20T11:24:58.950Z,6.2
2019-03-20T11:25:59.944Z,5.8
2019-03-20T11:26:59.862Z,7.8
2019-03-20T11:27:58.938Z,6
2019-03-20T11:28:58.991Z,7.3
2019-03-20T11:29:59.058Z,8
2019-03-20T11:30:59.125Z,7.7
2019-03-20T11:31:58.259Z,7.7
2019-03-20T11:32:59.346Z,6.1
2019-03-20T11:33:59.385Z,6.7
2019-03-20T11:34:59.424Z,5.1
2019-03-20T11:35:59.477Z,6
2019-03-20T11:36:59.519Z,5.9
2019-03-20T11:37:59.609Z,7.2
2019-03-20T11:38:59.652Z,7.6
2019-03-20T11:39:59.708Z,6.7
2019-03-20T11:40:59.754Z,9.2
2019-03-20T11:41:59.796Z,6.7
2019-03-20T11:42:59.886Z,5.1
2019-03-20T11:43:59.974Z,6
2019-03-20T11:45:00.020Z,5.2
2019-03-20T11:46:00.082Z,6.6
2019-03-20T11:47:00.131Z,6.8
2019-03-20T11:48:00.185Z,5.5
2019-03-20T11:49:00.255Z,5.9
2019-03-20T11:50:00.449Z,6.7
2019-03-20T11:51:00.336Z,4.4
2019-03-20T11:52:00.398Z,7.3
2019-03-20T11:53:00.446Z,7.1
2019-03-20T11:54:00.513Z,6.2
2019-03-20T11:55:00.564Z,6.1
2019-03-20T11:56:00.613Z,6.1
2019-03-20T11:57:00.662Z,6.3
2019-03-20T11:58:00.710Z,4.5
2019-03-20T11:59:00.815Z,5.6
2019-03-20T12:00:00.917Z,6.6
2019-03-20T12:01:00.949Z,5.9
2019-03-20T12:02:00.998Z,5.2
2019-03-20T12:03:01.045Z,7.5
2019-03-20T12:04:01.122Z,6.9
2019-03-20T12:05:01.166Z,6.4
2019-03-20T12:06:01.237Z,7.8
2019-03-20T12:07:01.284Z,6.2
2019-03-20T12:08:01.336Z,4.7
2019-03-20T12:09:01.501Z,5
2019-03-20T12:10:01.369Z,4.4
2019-03-20T12:11:01.407Z,5.3
2019-03-20T12:12:01.448Z,3.9
2019-03-20T12:13:01.490Z,3.8
2019-03-20T12:14:01.557Z,5.1
2019-03-20T12:15:01.599Z,5.4
2019-03-20T12:16:01.674Z,7
2019-03-20T12:17:01.734Z,4.5
2019-03-20T12:18:01.784Z,4.7
2019-03-20T12:19:01.853Z,5
2019-03-20T12:20:01.900Z,5
2019-03-20T12:21:01.941Z,4.6
2019-03-20T12:22:01.988Z,4.7
2019-03-20T12:23:02.047Z,5.4
2019-03-20T12:24:02.123Z,6.5
2019-03-20T12:25:02.177Z,4.7
2019-03-20T12:26:02.277Z,4.4
2019-03-20T12:27:02.362Z,4.5
2019-03-20T12:28:02.430Z,4.3
2019-03-20T12:29:02.487Z,3.8
2019-03-20T12:30:02.533Z,6
2019-03-20T12:31:02.580Z,5.5
2019-03-20T12:32:02.668Z,4.8